Time;durP1;ratioP1;P1;durP2;ratioP2;P2;SDS_P1;SDS_P2;PMS_P1;PMS_P2;Temp;Humidity;BMP_temperature;BMP_pressure;BME280_temperature;BME280_humidity;BME280_pressure;Samples;Min_cycle;Max_cycle;Signal;HPM_P1;HPM_P2
2022/08/09 00:01:32;;;;;;;7.50;6.50;;;;;;;24.27;56.37;95000.75;5053647;28;20933;-80
2022/08/09 00:03:59;;;;;;;7.17;6.47;;;;;;;24.27;55.99;94997.25;5053476;28;20800;-80
2022/08/09 00:06:26;;;;;;;7.83;6.90;;;;;;;24.20;57.06;94994.59;5053560;28;20454;-81
2022/08/09 00:08:54;;;;;;;7.70;7.00;;;;;;;24.13;56.95;94999.16;5053635;28;20441;-80
2022/08/09 00:11:21;;;;;;;8.80;6.80;;;;;;;24.02;57.04;95003.34;5068218;28;20425;-80
2022/08/09 00:13:48;;;;;;;6.80;6.20;;;;;;;23.96;57.67;95009.50;5053528;28;20453;-80
2022/08/09 00:16:17;;;;;;;8.37;6.90;;;;;;;23.89;58.05;95007.88;5053428;28;20442;-80
2022/08/09 00:18:44;;;;;;;6.43;5.57;;;;;;;23.89;58.13;95011.38;5053303;28;20913;-80
2022/08/09 00:21:11;;;;;;;7.00;6.50;;;;;;;23.97;57.83;95011.16;5053287;28;20481;-79
2022/08/09 00:23:38;;;;;;;6.80;6.10;;;;;;;24.05;58.96;95016.31;5053545;28;20445;-79
2022/08/09 00:26:06;;;;;;;9.67;6.97;;;;;;;24.17;57.81;95010.28;5053057;28;20453;-77
2022/08/09 00:28:33;;;;;;;7.87;6.93;;;;;;;24.19;57.13;95013.59;5053265;28;20445;-81
2022/08/09 00:30:59;;;;;;;6.70;5.83;;;;;;;24.21;57.25;95017.69;5053372;28;20437;-80
2022/08/09 00:33:28;;;;;;;7.60;6.67;;;;;;;24.24;56.83;95011.09;5053495;28;20464;-79
2022/08/09 00:35:55;;;;;;;6.47;5.90;;;;;;;24.39;58.02;95019.75;5053385;28;20469;-79
2022/08/09 00:38:22;;;;;;;7.13;6.43;;;;;;;24.17;56.65;95023.69;5052858;28;20445;-80
2022/08/09 00:40:49;;;;;;;6.80;6.20;;;;;;;23.84;57.99;95029.97;5052917;28;20489;-79
2022/08/09 00:43:15;;;;;;;8.07;7.27;;;;;;;23.71;58.97;95028.13;5052748;28;20444;-80
2022/08/09 00:45:42;;;;;;;14.33;7.00;;;;;;;23.86;59.17;95027.88;5053095;28;20456;-79
2022/08/09 00:48:09;;;;;;;9.80;7.50;;;;;;;24.01;59.67;95033.88;5053032;28;20446;-79
2022/08/09 00:50:37;;;;;;;7.40;6.67;;;;;;;24.04;57.71;95040.66;5052877;28;20446;-79
2022/08/09 00:53:05;;;;;;;7.37;6.73;;;;;;;24.19;58.20;95035.88;5053019;28;20457;-81
2022/08/09 00:55:32;;;;;;;11.03;6.77;;;;;;;24.31;58.40;95039.59;5052658;28;20438;-80
2022/08/09 00:57:59;;;;;;;7.30;6.60;;;;;;;24.43;58.25;95031.69;5052301;28;20473;-79
2022/08/09 01:00:26;;;;;;;6.93;6.27;;;;;;;24.52;56.84;95037.63;5052430;28;20838;-79
2022/08/09 01:02:58;;;;;;;10.90;6.97;;;;;;;24.53;58.33;95037.44;5052678;28;20452;-79
2022/08/09 01:05:41;;;;;;;7.27;6.53;;;;;;;24.60;57.58;95048.97;5052674;28;20449;-80
2022/08/09 01:08:13;;;;;;;10.50;6.83;;;;;;;24.67;57.70;95046.25;5034056;28;20503;-79
2022/08/09 01:10:51;;;;;;;7.67;6.97;;;;;;;24.68;56.93;95042.53;5052865;28;20454;-78
2022/08/09 01:13:24;;;;;;;6.83;6.23;;;;;;;24.63;56.53;95045.88;5052701;28;20442;-78
2022/08/09 01:15:54;;;;;;;6.80;5.90;;;;;;;24.53;57.40;95045.47;5052305;28;20445;-80
2022/08/09 01:18:26;;;;;;;7.13;6.53;;;;;;;24.57;56.93;95043.19;5052268;28;20571;-81
2022/08/09 01:21:11;;;;;;;6.40;5.83;;;;;;;24.54;56.77;95038.25;5050388;28;20477;-80
2022/08/09 01:23:51;;;;;;;6.73;6.17;;;;;;;24.39;57.02;95039.34;5052098;28;20803;-79
2022/08/09 01:26:38;;;;;;;6.33;5.83;;;;;;;24.32;56.59;95041.25;5052448;28;20457;-80
2022/08/09 01:29:06;;;;;;;11.40;6.77;;;;;;;24.21;56.58;95027.59;5051925;28;20449;-79
2022/08/09 01:31:35;;;;;;;6.43;5.83;;;;;;;24.03;56.79;95014.88;5052077;28;21110;-80
2022/08/09 01:34:05;;;;;;;7.33;6.60;;;;;;;24.00;57.19;95017.97;5052023;28;20445;-80
2022/08/09 01:36:35;;;;;;;6.87;6.17;;;;;;;23.90;57.46;95018.41;5052188;28;20540;-80
2022/08/09 01:39:02;;;;;;;7.70;6.63;;;;;;;23.74;58.19;95005.44;5052031;28;21031;-82
2022/08/09 01:41:31;;;;;;;7.23;6.63;;;;;;;23.66;58.96;94985.03;5051988;28;20505;-80
2022/08/09 01:44:02;;;;;;;7.50;6.40;;;;;;;23.48;60.57;94974.94;5033236;28;20453;-79
2022/08/09 01:46:32;;;;;;;7.00;6.50;;;;;;;23.39;62.60;94978.03;5052296;28;20437;-80
2022/08/09 01:49:02;;;;;;;7.33;6.73;;;;;;;23.29;62.90;94980.31;5052117;28;20856;-79
2022/08/09 01:51:31;;;;;;;7.03;6.37;;;;;;;23.21;62.63;94977.84;5049641;28;20770;-79
2022/08/09 01:54:00;;;;;;;8.17;7.10;;;;;;;23.28;62.65;94979.47;5016682;28;20434;-81
2022/08/09 01:56:28;;;;;;;8.70;6.50;;;;;;;23.36;63.26;94981.94;5051706;28;20437;-79
2022/08/09 01:58:57;;;;;;;8.17;6.40;;;;;;;23.38;62.35;94974.53;5051917;28;20474;-80
2022/08/09 02:01:28;;;;;;;8.00;7.13;;;;;;;23.51;62.82;94973.69;5051865;28;20580;-80
2022/08/09 02:03:57;;;;;;;7.13;6.40;;;;;;;23.56;61.20;94965.06;5051917;28;20525;-79
2022/08/09 02:09:07;;;;;;;15.13;6.20;;;;;;;23.59;60.75;94976.19;5051294;28;20434;-80
2022/08/09 02:11:34;;;;;;;6.60;6.03;;;;;;;23.63;60.87;94973.91;5051998;28;20466;-79
2022/08/09 02:14:02;;;;;;;7.73;7.03;;;;;;;23.87;60.74;94981.28;5051826;28;20449;-80
2022/08/09 02:16:34;;;;;;;6.60;6.00;;;;;;;24.08;60.07;94983.72;5051809;28;20441;-78
2022/08/09 02:19:01;;;;;;;7.18;6.47;;;;;;;24.27;58.70;94979.31;5051541;28;20459;-80
2022/08/09 02:21:31;;;;;;;7.70;6.20;;;;;;;24.36;59.93;94979.94;5020582;28;20508;-80
2022/08/09 02:23:59;;;;;;;7.50;6.70;;;;;;;24.39;59.39;94976.81;5056130;28;20460;-79
2022/08/09 02:26:28;;;;;;;6.03;5.53;;;;;;;24.39;58.41;94972.28;5055907;28;20465;-80
2022/08/09 02:28:59;;;;;;;8.83;6.47;;;;;;;24.43;57.84;94977.22;5055660;28;20483;-80
2022/08/09 02:31:30;;;;;;;7.57;6.87;;;;;;;24.03;59.05;94991.56;5019942;28;20465;-79
2022/08/09 02:34:06;;;;;;;7.47;6.77;;;;;;;23.63;60.96;94993.50;5055855;28;20556;-80
2022/08/09 02:36:37;;;;;;;7.47;6.70;;;;;;;23.09;64.85;94993.66;5020329;28;20457;-80
2022/08/09 02:39:07;;;;;;;8.07;6.37;;;;;;;23.14;65.35;95005.44;5055614;28;20851;-80
2022/08/09 02:41:40;;;;;;;7.80;7.00;;;;;;;23.06;66.15;95012.81;5055293;28;20507;-83
2022/08/09 02:44:11;;;;;;;8.40;7.67;;;;;;;23.03;66.57;95013.22;5055334;28;20445;-80
2022/08/09 02:46:39;;;;;;;10.67;7.07;;;;;;;22.81;66.84;95013.38;5055243;28;20492;-79
2022/08/09 02:49:12;;;;;;;8.27;7.47;;;;;;;23.07;67.26;95014.47;5055166;28;20442;-79
2022/08/09 02:51:43;;;;;;;8.30;7.40;;;;;;;23.40;68.74;95015.31;5054969;28;20446;-80
2022/08/09 02:54:13;;;;;;;11.03;7.67;;;;;;;23.61;66.46;95006.28;5055177;28;20932;-80
2022/08/09 02:56:42;;;;;;;8.27;7.47;;;;;;;23.81;66.06;95014.31;5036505;28;20453;-80
2022/08/09 02:59:11;;;;;;;8.50;7.27;;;;;;;23.99;65.53;95014.44;5054599;28;20473;-79
2022/08/09 03:01:39;;;;;;;7.47;6.77;;;;;;;24.12;63.82;95004.75;5054902;28;20476;-81
2022/08/09 03:04:08;;;;;;;9.40;8.03;;;;;;;24.19;64.34;95006.38;5055071;28;20450;-80
2022/08/09 03:06:36;;;;;;;10.17;7.60;;;;;;;24.24;62.96;95016.44;5054785;28;20437;-80
2022/08/09 03:09:04;;;;;;;7.47;6.63;;;;;;;24.28;63.87;95015.84;5054937;28;20479;-80
2022/08/09 03:11:31;;;;;;;6.77;6.17;;;;;;;24.31;63.78;95017.31;5054502;28;20503;-80
2022/08/09 03:14:01;;;;;;;7.33;6.63;;;;;;;24.30;63.51;95007.63;5055064;28;20457;-80
2022/08/09 03:16:28;;;;;;;8.20;7.27;;;;;;;24.31;63.80;95006.59;5054843;28;20441;-81
2022/08/09 03:18:56;;;;;;;8.47;7.07;;;;;;;24.24;62.49;95000.38;5054828;28;20833;-80
2022/08/09 03:21:24;;;;;;;7.50;6.73;;;;;;;24.17;62.39;95011.13;5054645;28;20500;-80
2022/08/09 03:23:51;;;;;;;8.30;7.27;;;;;;;24.19;63.84;95013.59;5054655;28;20511;-80
2022/08/09 03:26:20;;;;;;;7.83;7.03;;;;;;;24.17;62.72;95013.81;5054405;28;20450;-80
2022/08/09 03:28:48;;;;;;;10.77;7.77;;;;;;;24.12;61.89;95016.28;5054467;28;20446;-80
2022/08/09 03:31:17;;;;;;;7.87;7.07;;;;;;;24.08;62.39;95017.75;5053614;28;20461;-80
2022/08/09 03:33:44;;;;;;;7.40;6.70;;;;;;;24.00;62.72;95009.94;5054537;28;20452;-80
2022/08/09 03:36:11;;;;;;;7.43;6.60;;;;;;;23.97;63.14;95016.53;5054308;28;20449;-80
2022/08/09 03:38:42;;;;;;;8.80;6.87;;;;;;;23.94;63.03;95019.63;5053980;28;20454;-79
2022/08/09 03:41:09;;;;;;;8.17;7.37;;;;;;;23.91;64.85;95021.91;5051923;28;20485;-80
2022/08/09 03:43:36;;;;;;;7.73;7.07;;;;;;;23.86;64.09;95027.88;5054188;28;21010;-81
2022/08/09 03:46:03;;;;;;;7.87;6.70;;;;;;;23.86;64.12;95033.25;5051900;28;20959;-80
2022/08/09 03:48:32;;;;;;;7.87;7.17;;;;;;;23.88;64.36;95025.81;5054171;28;20809;-80
2022/08/09 03:51:00;;;;;;;10.43;7.67;;;;;;;23.87;63.41;95024.19;5053864;28;20963;-80
2022/08/09 03:53:28;;;;;;;8.40;7.10;;;;;;;23.82;63.62;95025.84;5053902;28;20817;-79
2022/08/09 03:55:57;;;;;;;8.10;7.30;;;;;;;23.92;64.26;95026.22;5053863;28;20449;-79
2022/08/09 03:58:24;;;;;;;8.27;7.57;;;;;;;24.15;74.68;95031.13;5055925;28;20474;-81
2022/08/09 04:00:51;;;;;;;10.70;7.93;;;;;;;24.39;63.86;95022.44;5055302;28;20493;-83
2022/08/09 04:03:18;;;;;;;7.90;7.10;;;;;;;24.74;62.41;95022.91;5054899;28;20944;-85
2022/08/09 04:05:45;;;;;;;10.10;8.10;;;;;;;24.77;60.80;95025.16;5055697;28;20454;-85
2022/08/09 04:08:12;;;;;;;13.23;7.90;;;;;;;24.74;60.65;95030.13;5055088;28;20452;-80
2022/08/09 04:10:44;;;;;;;9.07;7.30;;;;;;;24.75;60.78;95031.75;5054746;28;20932;-80
2022/08/09 04:13:13;;;;;;;8.77;7.80;;;;;;;24.86;60.29;95028.38;5054918;28;20937;-79
2022/08/09 04:15:39;;;;;;;10.20;8.20;;;;;;;25.13;59.49;95043.34;5055278;28;20445;-79
2022/08/09 04:18:07;;;;;;;9.60;7.77;;;;;;;25.32;59.02;95031.66;5055187;28;20793;-79
2022/08/09 04:20:34;;;;;;;7.63;6.93;;;;;;;25.46;58.14;95034.25;5054403;28;20488;-79
2022/08/09 04:23:00;;;;;;;8.93;6.30;;;;;;;25.63;57.47;95027.28;5054446;28;20457;-79
2022/08/09 04:25:27;;;;;;;9.47;7.63;;;;;;;25.77;57.13;95028.03;5054518;28;20446;-78
2022/08/09 04:27:55;;;;;;;8.03;7.17;;;;;;;25.92;56.80;95026.63;5054413;28;20541;-78
2022/08/09 04:30:24;;;;;;;7.70;7.00;;;;;;;26.07;55.97;95037.06;5054429;28;20529;-78
2022/08/09 04:32:51;;;;;;;6.83;6.23;;;;;;;26.19;55.77;95037.94;5054646;28;20454;-78
2022/08/09 04:35:19;;;;;;;9.70;8.10;;;;;;;26.37;55.54;95039.88;5054494;28;20944;-79
2022/08/09 04:37:46;;;;;;;7.93;7.33;;;;;;;26.53;54.73;95051.88;5054297;28;20472;-79
2022/08/09 04:40:13;;;;;;;10.30;7.83;;;;;;;26.67;53.99;95044.50;5054286;28;20430;-78
2022/08/09 04:42:40;;;;;;;7.83;7.17;;;;;;;26.75;53.99;95041.47;5053549;28;20940;-78
2022/08/09 04:45:08;;;;;;;9.40;7.80;;;;;;;26.84;53.12;95045.50;5054506;28;20445;-78
2022/08/09 04:47:36;;;;;;;7.87;7.17;;;;;;;26.87;53.11;95050.44;5054291;28;20453;-78
2022/08/09 04:50:04;;;;;;;7.50;6.80;;;;;;;26.91;52.38;95038.19;5054088;28;20449;-77
2022/08/09 04:52:30;;;;;;;7.97;7.27;;;;;;;26.98;52.22;95052.38;5054080;28;20449;-78
2022/08/09 04:55:00;;;;;;;8.93;6.90;;;;;;;27.06;52.20;95053.94;5053887;28;20453;-77
2022/08/09 04:57:28;;;;;;;8.47;7.50;;;;;;;27.08;52.05;95051.84;5053971;28;20469;-78
2022/08/09 04:59:55;;;;;;;11.00;7.60;;;;;;;27.20;52.15;95057.31;5053650;28;20462;-78
2022/08/09 05:02:23;;;;;;;8.63;7.80;;;;;;;27.32;52.01;95058.16;5053625;28;20865;-78
2022/08/09 05:04:51;;;;;;;8.10;7.30;;;;;;;27.39;50.45;95058.88;5018900;28;20512;-78
2022/08/09 05:07:18;;;;;;;12.23;7.60;;;;;;;27.47;50.54;95061.25;5054246;28;20803;-78
2022/08/09 05:09:45;;;;;;;7.37;6.67;;;;;;;27.64;50.41;95073.03;5053894;28;20450;-78
2022/08/09 05:12:12;;;;;;;8.03;7.33;;;;;;;27.76;50.00;95054.19;5054024;28;20468;-78
2022/08/09 05:14:39;;;;;;;7.93;6.20;;;;;;;28.08;53.92;95055.50;5053006;28;20462;-82
2022/08/09 05:17:06;;;;;;;8.13;7.37;;;;;;;28.44;50.53;95067.13;5053944;28;20511;-81
2022/08/09 05:19:32;;;;;;;7.53;6.83;;;;;;;28.82;49.40;95063.88;5067751;28;20449;-79
2022/08/09 05:22:00;;;;;;;11.07;7.60;;;;;;;29.14;48.15;95049.91;5061517;28;20484;-82
2022/08/09 05:24:27;;;;;;;10.27;7.83;;;;;;;29.50;47.38;95046.03;5066208;28;20511;-82
2022/08/09 05:26:54;;;;;;;11.80;7.80;;;;;;;29.90;45.76;95060.22;5066897;28;20445;-81
2022/08/09 05:29:21;;;;;;;9.90;7.83;;;;;;;30.35;47.04;95069.31;5058939;28;20521;-82
2022/08/09 05:31:48;;;;;;;9.20;6.90;;;;;;;30.64;44.74;95076.25;5072998;28;20448;-79
2022/08/09 05:34:15;;;;;;;15.97;8.30;;;;;;;30.94;44.35;95075.00;5058617;28;20446;-79
2022/08/09 05:36:43;;;;;;;8.70;7.90;;;;;;;31.11;42.07;95075.78;5054211;28;20964;-79
2022/08/09 05:39:11;;;;;;;7.77;7.17;;;;;;;31.25;41.90;95076.25;5053863;28;20460;-80
2022/08/09 05:41:38;;;;;;;7.50;6.90;;;;;;;31.17;41.68;95073.97;5052844;28;20489;-76
2022/08/09 05:44:05;;;;;;;7.70;7.10;;;;;;;31.05;41.58;95079.50;5052924;28;20457;-76
2022/08/09 05:46:31;;;;;;;10.93;6.90;;;;;;;30.87;41.84;95069.78;5052833;28;20860;-78
2022/08/09 05:48:58;;;;;;;8.20;6.80;;;;;;;30.80;42.87;95074.59;5053006;28;20956;-78
2022/08/09 05:51:25;;;;;;;13.73;7.30;;;;;;;30.82;42.51;95070.56;5051940;28;20473;-75
2022/08/09 05:53:52;;;;;;;8.43;7.13;;;;;;;30.68;41.24;95069.28;5039377;28;20481;-76
2022/08/09 05:56:20;;;;;;;9.17;7.70;;;;;;;30.79;41.88;95064.81;5052369;28;20453;-76
2022/08/09 05:58:47;;;;;;;9.47;6.73;;;;;;;31.00;42.00;95065.91;5052795;28;20568;-78
2022/08/09 06:01:14;;;;;;;7.00;6.30;;;;;;;30.98;41.30;95059.91;5052863;28;20488;-77
2022/08/09 06:03:41;;;;;;;8.17;7.23;;;;;;;30.99;41.83;95067.78;5053440;28;20488;-79
2022/08/09 06:06:08;;;;;;;7.37;6.63;;;;;;;30.99;41.48;95070.50;5053442;28;20461;-79
2022/08/09 06:08:34;;;;;;;7.67;6.90;;;;;;;31.01;42.46;95065.63;5053251;28;20442;-79
2022/08/09 06:11:01;;;;;;;8.57;6.50;;;;;;;31.23;42.02;95071.09;5052700;28;20438;-79
2022/08/09 06:13:30;;;;;;;9.50;7.60;;;;;;;31.25;41.22;95066.22;5053201;28;20935;-80
2022/08/09 06:15:56;;;;;;;11.13;8.20;;;;;;;31.22;42.07;95065.88;5018125;28;20438;-79
2022/08/09 06:18:23;;;;;;;13.33;7.57;;;;;;;31.31;42.51;95059.78;5053294;28;20434;-79
2022/08/09 06:20:50;;;;;;;20.50;8.50;;;;;;;31.33;41.45;95062.22;5054743;28;20783;-79
2022/08/09 06:23:17;;;;;;;7.67;7.07;;;;;;;31.30;41.39;95068.16;5052521;28;20449;-79
2022/08/09 06:25:44;;;;;;;12.03;7.20;;;;;;;31.42;41.47;95069.63;5052510;28;20434;-79
2022/08/09 06:28:11;;;;;;;13.27;7.60;;;;;;;31.47;41.31;95074.28;5052374;28;20437;-79
2022/08/09 06:30:39;;;;;;;8.60;7.80;;;;;;;31.20;41.38;95074.28;5052370;28;21007;-78
2022/08/09 06:33:06;;;;;;;9.63;7.50;;;;;;;30.71;42.63;95070.69;5051443;28;20442;-78
2022/08/09 06:35:33;;;;;;;7.53;6.80;;;;;;;30.79;43.23;95071.06;5051935;28;20837;-79
2022/08/09 06:38:00;;;;;;;8.30;7.47;;;;;;;30.83;43.16;95071.38;5032319;28;20449;-79
2022/08/09 06:40:27;;;;;;;11.17;7.47;;;;;;;31.06;43.13;95073.00;5050774;28;20949;-79
2022/08/09 06:42:54;;;;;;;9.00;8.13;;;;;;;31.05;42.52;95068.66;5051481;28;21304;-79
2022/08/09 06:45:21;;;;;;;11.67;8.07;;;;;;;31.33;42.62;95064.94;5052350;28;20452;-82
2022/08/09 06:47:49;;;;;;;9.10;7.97;;;;;;;31.47;42.29;95062.63;5052905;28;20477;-80
2022/08/09 06:50:16;;;;;;;9.93;8.77;;;;;;;31.64;42.08;95066.88;5052205;28;20438;-80
2022/08/09 06:52:45;;;;;;;11.03;9.50;;;;;;;31.69;41.13;95066.91;5053004;28;20454;-80
2022/08/09 06:55:13;;;;;;;9.67;8.83;;;;;;;31.75;41.14;95059.66;5052396;28;20562;-80
2022/08/09 06:57:40;;;;;;;11.40;8.70;;;;;;;31.93;41.01;95067.44;5052130;28;20465;-80
2022/08/09 07:00:08;;;;;;;13.03;9.30;;;;;;;32.17;41.54;95061.66;5051708;28;20479;-80
2022/08/09 07:02:35;;;;;;;10.57;8.93;;;;;;;32.39;39.27;95067.00;5031002;28;20825;-78
2022/08/09 07:05:05;;;;;;;12.90;10.00;;;;;;;32.52;39.24;95058.38;5050700;28;20445;-80
2022/08/09 07:07:31;;;;;;;14.37;9.43;;;;;;;32.64;38.92;95061.69;5054837;28;20457;-79
2022/08/09 07:09:58;;;;;;;13.63;10.40;;;;;;;32.61;37.83;95052.16;5054245;28;20795;-79
2022/08/09 07:12:25;;;;;;;20.00;11.90;;;;;;;32.63;38.52;95058.16;5054328;28;20453;-80
2022/08/09 07:14:52;;;;;;;13.37;12.07;;;;;;;32.60;37.42;95050.53;5018620;28;20449;-79
2022/08/09 07:17:19;;;;;;;15.43;11.07;;;;;;;32.75;39.34;95048.97;5035604;28;20948;-81
2022/08/09 07:19:46;;;;;;;17.57;12.10;;;;;;;32.71;38.01;95051.41;5054856;28;20441;-80
2022/08/09 07:22:14;;;;;;;24.57;11.90;;;;;;;32.83;37.15;95054.75;5035694;28;20488;-80
2022/08/09 07:24:41;;;;;;;15.43;11.50;;;;;;;32.97;36.69;95049.66;5054156;28;20805;-80
2022/08/09 07:27:10;;;;;;;11.37;10.17;;;;;;;32.98;36.84;95043.13;5054475;28;20450;-80
2022/08/09 07:29:37;;;;;;;11.80;10.20;;;;;;;32.96;35.12;95058.88;5054770;28;20450;-80
2022/08/09 07:32:06;;;;;;;14.73;11.30;;;;;;;32.87;34.41;95057.75;5055009;28;20438;-80
2022/08/09 07:34:33;;;;;;;11.40;10.30;;;;;;;32.68;35.82;95051.13;5055051;28;20440;-80
2022/08/09 07:37:00;;;;;;;10.77;9.80;;;;;;;32.86;34.63;95050.69;5055305;28;20495;-80
2022/08/09 07:39:28;;;;;;;14.30;11.37;;;;;;;32.88;34.15;95053.94;5055810;28;21026;-80
2022/08/09 07:41:55;;;;;;;10.90;9.53;;;;;;;33.04;36.13;95052.94;5055346;28;20488;-82
2022/08/09 07:44:22;;;;;;;18.47;9.60;;;;;;;33.04;34.50;95061.09;5055086;28;20495;-80
2022/08/09 07:46:48;;;;;;;12.67;9.30;;;;;;;33.13;34.30;95059.50;5055236;28;20430;-80
2022/08/09 07:49:15;;;;;;;11.47;10.47;;;;;;;32.96;34.78;95053.44;5055293;28;20453;-80
2022/08/09 07:51:42;;;;;;;11.90;10.30;;;;;;;32.70;35.00;95051.69;5055186;28;20930;-80
2022/08/09 07:54:09;;;;;;;10.20;8.90;;;;;;;32.71;34.85;95053.31;5055156;28;20457;-80
2022/08/09 07:56:37;;;;;;;11.00;9.90;;;;;;;32.80;35.97;95058.00;5055048;28;20975;-80
2022/08/09 07:59:06;;;;;;;9.80;8.80;;;;;;;32.94;35.49;95055.59;5055451;28;20482;-79
2022/08/09 08:01:33;;;;;;;14.53;8.80;;;;;;;33.10;33.48;95051.88;5055070;28;20491;-79
2022/08/09 08:04:00;;;;;;;11.77;8.83;;;;;;;33.31;34.48;95050.06;5055233;28;20438;-80
2022/08/09 08:06:26;;;;;;;8.90;8.10;;;;;;;33.43;34.03;95047.91;5054745;28;20449;-80
2022/08/09 08:08:53;;;;;;;8.03;7.23;;;;;;;33.68;32.87;95049.84;5055504;28;20442;-80
2022/08/09 08:11:20;;;;;;;8.37;7.10;;;;;;;33.73;31.88;95041.69;5055143;28;20453;-80
2022/08/09 08:13:48;;;;;;;14.17;7.77;;;;;;;33.85;31.46;95047.72;5054786;28;20476;-80
2022/08/09 08:16:15;;;;;;;9.50;7.13;;;;;;;33.59;32.88;95040.59;5019914;28;20457;-81
2022/08/09 08:18:44;;;;;;;12.67;8.60;;;;;;;33.67;33.13;95036.50;5054932;28;20937;-82
2022/08/09 08:21:10;;;;;;;13.47;8.33;;;;;;;33.58;32.43;95027.25;5054606;28;20925;-80
2022/08/09 08:23:37;;;;;;;11.60;8.00;;;;;;;33.53;32.44;95026.13;5055199;28;20496;-80
2022/08/09 08:26:04;;;;;;;10.43;7.73;;;;;;;33.58;33.14;95027.25;5054404;28;20926;-79
2022/08/09 08:28:31;;;;;;;7.40;6.70;;;;;;;33.36;32.71;95025.59;5054449;28;20937;-80
2022/08/09 08:30:59;;;;;;;7.63;6.20;;;;;;;33.20;32.55;95021.97;5054719;28;20471;-79
2022/08/09 08:33:26;;;;;;;7.17;6.57;;;;;;;33.36;34.24;95024.78;5054483;28;20430;-82
2022/08/09 08:35:53;;;;;;;7.00;6.23;;;;;;;33.35;31.35;95017.69;5054499;28;20441;-82
2022/08/09 08:38:20;;;;;;;9.37;6.53;;;;;;;33.46;32.20;95020.16;5054317;28;20916;-79
2022/08/09 08:40:47;;;;;;;11.90;7.30;;;;;;;33.51;31.93;95024.78;5054412;28;20426;-79
2022/08/09 08:46:40;;;;;;;8.13;5.93;;;;;;;33.61;30.81;95015.81;5052953;28;20429;-79
2022/08/09 08:49:07;;;;;;;6.20;5.60;;;;;;;33.58;32.05;95006.31;5054488;28;20469;-81
2022/08/09 08:51:34;;;;;;;9.80;5.20;;;;;;;33.60;31.82;95008.75;5054253;28;20452;-80
2022/08/09 08:54:06;;;;;;;7.80;6.90;;;;;;;33.65;32.47;95000.59;5019631;28;20444;-80
2022/08/09 08:56:35;;;;;;;8.70;5.80;;;;;;;33.58;32.01;95010.94;5054610;28;20430;-80
2022/08/09 08:59:05;;;;;;;9.60;6.37;;;;;;;33.41;32.49;94994.84;5053848;28;20474;-80
2022/08/09 09:01:34;;;;;;;8.43;5.13;;;;;;;33.54;30.69;95003.31;5052842;28;20497;-81
2022/08/09 09:04:03;;;;;;;5.00;4.60;;;;;;;33.51;29.98;94995.66;5053359;28;20806;-80
2022/08/09 09:06:32;;;;;;;5.37;4.90;;;;;;;33.43;30.54;94993.47;5052531;28;20438;-81
2022/08/09 09:09:00;;;;;;;6.90;4.93;;;;;;;33.27;29.93;94989.09;5052796;28;20450;-81
2022/08/09 09:11:28;;;;;;;5.70;4.83;;;;;;;33.37;31.12;94988.31;5052608;28;20461;-80
2022/08/09 09:13:57;;;;;;;5.27;4.10;;;;;;;33.39;28.91;94980.69;5052567;28;20446;-81
2022/08/09 09:16:24;;;;;;;4.93;4.53;;;;;;;33.21;28.28;94985.53;5033840;28;20929;-81
2022/08/09 09:18:54;;;;;;;5.67;3.87;;;;;;;33.22;28.46;94980.91;5052623;28;20528;-80
2022/08/09 09:21:23;;;;;;;4.67;4.27;;;;;;;33.11;28.27;94980.06;5052622;28;20450;-80
2022/08/09 09:23:50;;;;;;;4.97;4.40;;;;;;;33.07;28.09;94970.81;5052373;28;20488;-80
2022/08/09 09:26:17;;;;;;;5.13;4.03;;;;;;;32.94;26.13;94972.13;5052713;28;20446;-81
2022/08/09 09:28:45;;;;;;;4.00;3.60;;;;;;;32.97;26.17;94973.53;5052443;28;20449;-79
2022/08/09 09:31:14;;;;;;;4.33;3.83;;;;;;;32.70;27.34;94959.28;5052572;28;20503;-79
2022/08/09 09:33:41;;;;;;;4.30;3.40;;;;;;;32.41;26.79;94970.56;5052558;28;20463;-82
2022/08/09 09:36:10;;;;;;;6.10;3.47;;;;;;;32.65;26.24;94955.44;5052349;28;20441;-78
2022/08/09 09:38:43;;;;;;;4.30;3.90;;;;;;;32.85;28.25;94954.72;5052746;28;20611;-79
2022/08/09 09:41:10;;;;;;;6.57;4.17;;;;;;;32.35;27.54;94952.59;5051934;28;20540;-79
2022/08/09 09:43:37;;;;;;;5.77;3.83;;;;;;;32.64;27.56;94953.78;5051938;28;20488;-79
2022/08/09 09:46:04;;;;;;;4.20;3.90;;;;;;;32.65;28.19;94955.44;5051930;28;20442;-78
2022/08/09 09:48:31;;;;;;;6.73;3.27;;;;;;;32.83;28.06;94945.19;5051989;28;20527;-79
2022/08/09 09:50:58;;;;;;;5.30;3.10;;;;;;;32.87;24.32;94952.53;5052012;28;20441;-79
2022/08/09 09:53:27;;;;;;;9.20;3.07;;;;;;;32.93;25.45;94950.66;5051906;28;20921;-79
2022/08/09 09:55:57;;;;;;;7.50;3.80;;;;;;;33.03;25.13;94949.88;5016769;28;20445;-78
2022/08/09 09:58:25;;;;;;;3.63;3.33;;;;;;;33.14;25.09;94941.44;5051723;28;20557;-79
2022/08/09 10:00:54;;;;;;;3.90;3.37;;;;;;;33.26;25.67;94933.88;5051915;28;20920;-80
2022/08/09 10:03:37;;;;;;;5.20;3.90;;;;;;;33.24;25.26;94932.47;5051804;28;20486;-78
2022/08/09 10:06:04;;;;;;;4.00;3.60;;;;;;;33.24;25.31;94940.63;5051756;28;20446;-79
2022/08/09 10:08:31;;;;;;;4.33;3.67;;;;;;;32.89;25.26;94939.50;5052136;28;20813;-79
2022/08/09 10:10:59;;;;;;;4.30;3.50;;;;;;;32.53;25.76;94935.00;5052236;28;20442;-79
2022/08/09 10:13:38;;;;;;;4.20;3.80;;;;;;;32.08;26.03;94939.09;5051780;28;20543;-78
2022/08/09 10:16:05;;;;;;;3.87;3.07;;;;;;;31.84;26.22;94938.72;5051935;28;20819;-78
2022/08/09 10:18:32;;;;;;;4.20;3.80;;;;;;;31.56;26.15;94942.53;5051682;28;20457;-79
2022/08/09 10:21:07;;;;;;;4.83;3.03;;;;;;;31.37;25.95;94939.41;5051854;28;20449;-79
2022/08/09 10:23:34;;;;;;;3.97;3.10;;;;;;;31.41;26.48;94935.09;5051800;28;20492;-77
2022/08/09 10:26:03;;;;;;;6.50;3.60;;;;;;;31.63;27.78;94935.00;5051618;28;20453;-78
2022/08/09 10:28:32;;;;;;;3.47;2.83;;;;;;;31.76;25.89;94936.47;5051644;28;20456;-78
2022/08/09 10:30:59;;;;;;;4.50;2.63;;;;;;;31.81;25.47;94933.81;5051629;28;20457;-79
2022/08/09 10:33:26;;;;;;;3.30;3.00;;;;;;;31.71;26.89;94937.25;5051606;28;20445;-79
2022/08/09 10:35:58;;;;;;;3.93;2.90;;;;;;;31.47;25.21;94927.00;5053152;28;20448;-79
2022/08/09 10:38:25;;;;;;;2.73;2.53;;;;;;;31.76;26.26;94933.75;5053501;28;20481;-78
2022/08/09 10:40:52;;;;;;;6.23;2.60;;;;;;;31.92;25.99;94935.50;5053225;28;20532;-79
2022/08/09 10:43:20;;;;;;;3.70;3.10;;;;;;;31.76;25.84;94936.47;5020457;28;20481;-78
2022/08/09 10:45:49;;;;;;;4.63;2.60;;;;;;;31.42;26.11;94925.06;5055302;28;20452;-79
2022/08/09 10:48:21;;;;;;;3.80;3.30;;;;;;;31.36;27.39;94931.53;5055719;28;20444;-78
2022/08/09 10:51:08;;;;;;;2.93;2.73;;;;;;;31.26;26.06;94934.16;5020168;28;20453;-77
2022/08/09 10:53:54;;;;;;;3.30;2.70;;;;;;;31.23;25.55;94927.34;5055322;28;20445;-79
2022/08/09 10:56:23;;;;;;;4.63;2.47;;;;;;;31.29;24.80;94926.31;5055214;28;20441;-77
2022/08/09 10:58:52;;;;;;;8.17;3.33;;;;;;;31.26;25.49;94932.28;5054965;28;20485;-79
2022/08/09 11:01:40;;;;;;;4.23;3.20;;;;;;;31.21;27.18;94932.19;5054937;28;20959;-79
2022/08/09 11:04:20;;;;;;;5.73;3.43;;;;;;;31.04;28.19;94937.72;5055026;28;20543;-80
2022/08/09 11:06:50;;;;;;;7.40;3.27;;;;;;;31.17;28.75;94927.56;5055013;28;20453;-79
2022/08/09 11:09:18;;;;;;;4.77;3.30;;;;;;;31.47;29.29;94925.09;5020205;28;20453;-80
2022/08/09 11:12:11;;;;;;;4.27;3.00;;;;;;;31.62;27.98;94927.94;5055023;28;20789;-80
2022/08/09 11:14:43;;;;;;;5.57;3.33;;;;;;;31.75;29.28;94923.97;5054827;28;20944;-80
2022/08/09 11:17:50;;;;;;;3.83;3.17;;;;;;;31.64;27.56;94928.50;5055035;28;20456;-78
2022/08/09 11:20:18;;;;;;;4.10;2.97;;;;;;;31.60;27.06;94921.13;5054900;28;20515;-79
2022/08/09 11:23:00;;;;;;;3.37;3.07;;;;;;;31.58;27.46;94917.88;5054594;28;20504;-80
2022/08/09 11:25:44;;;;;;;5.90;3.60;;;;;;;31.09;28.91;94920.69;5054752;28;20472;-79
2022/08/09 11:28:32;;;;;;;3.80;3.50;;;;;;;31.06;27.41;94923.91;5054803;28;20474;-80
2022/08/09 11:31:01;;;;;;;4.10;3.80;;;;;;;30.99;28.49;94920.59;5019655;28;20460;-80
2022/08/09 11:33:41;;;;;;;5.80;3.80;;;;;;;30.77;27.93;94907.09;5054404;28;20445;-78
2022/08/09 11:36:10;;;;;;;5.77;4.00;;;;;;;30.44;29.03;94913.47;5054490;28;20453;-78
2022/08/09 11:38:37;;;;;;;6.73;4.47;;;;;;;30.04;28.50;94903.75;5054885;28;20777;-78
2022/08/09 11:41:30;;;;;;;4.50;4.00;;;;;;;29.97;28.75;94903.09;5054648;28;20450;-78
2022/08/09 11:43:58;;;;;;;7.97;3.60;;;;;;;30.06;29.71;94917.84;5054166;28;20473;-79
2022/08/09 11:46:27;;;;;;;5.17;4.70;;;;;;;30.12;31.30;94913.34;5054416;28;20548;-79